sensor_id;sensor_type;location;lat;lon;timestamp;P1;durP1;ratioP1;P2;durP2;ratioP2
12886;SDS011;6511;49.746;6.094;2023-05-10T00:00:23;4.80;;;3.78;;
12886;SDS011;6511;49.746;6.094;2023-05-10T00:02:49;7.88;;;3.78;;
12886;SDS011;6511;49.746;6.094;2023-05-10T00:05:15;6.23;;;3.80;;
12886;SDS011;6511;49.746;6.094;2023-05-10T00:07:40;6.40;;;4.10;;
12886;SDS011;6511;49.746;6.094;2023-05-10T00:10:09;5.22;;;3.75;;
12886;SDS011;6511;49.746;6.094;2023-05-10T00:12:35;5.65;;;3.88;;
12886;SDS011;6511;49.746;6.094;2023-05-10T00:15:01;5.80;;;3.67;;
12886;SDS011;6511;49.746;6.094;2023-05-10T00:17:27;6.18;;;4.00;;
12886;SDS011;6511;49.746;6.094;2023-05-10T00:19:53;5.93;;;3.90;;
12886;SDS011;6511;49.746;6.094;2023-05-10T00:22:19;5.07;;;3.60;;
12886;SDS011;6511;49.746;6.094;2023-05-10T00:24:45;5.38;;;3.80;;
12886;SDS011;6511;49.746;6.094;2023-05-10T00:27:10;6.30;;;4.27;;
12886;SDS011;6511;49.746;6.094;2023-05-10T00:29:36;7.67;;;4.47;;
12886;SDS011;6511;49.746;6.094;2023-05-10T00:32:01;6.23;;;4.60;;
12886;SDS011;6511;49.746;6.094;2023-05-10T00:34:27;6.40;;;4.50;;
12886;SDS011;6511;49.746;6.094;2023-05-10T00:36:53;7.37;;;4.77;;
12886;SDS011;6511;49.746;6.094;2023-05-10T00:39:18;6.60;;;4.90;;
12886;SDS011;6511;49.746;6.094;2023-05-10T00:41:44;7.68;;;5.18;;
12886;SDS011;6511;49.746;6.094;2023-05-10T00:44:10;8.33;;;5.30;;
12886;SDS011;6511;49.746;6.094;2023-05-10T00:46:35;9.80;;;5.63;;
12886;SDS011;6511;49.746;6.094;2023-05-10T00:49:01;8.57;;;5.60;;
12886;SDS011;6511;49.746;6.094;2023-05-10T00:51:27;9.40;;;5.70;;
12886;SDS011;6511;49.746;6.094;2023-05-10T00:53:53;8.93;;;5.40;;
12886;SDS011;6511;49.746;6.094;2023-05-10T00:56:20;8.43;;;5.28;;
12886;SDS011;6511;49.746;6.094;2023-05-10T00:58:48;9.85;;;6.10;;
12886;SDS011;6511;49.746;6.094;2023-05-10T01:01:14;10.10;;;5.80;;
12886;SDS011;6511;49.746;6.094;2023-05-10T01:03:39;9.77;;;5.67;;
12886;SDS011;6511;49.746;6.094;2023-05-10T01:06:05;9.43;;;5.50;;
12886;SDS011;6511;49.746;6.094;2023-05-10T01:08:31;9.88;;;5.75;;
12886;SDS011;6511;49.746;6.094;2023-05-10T01:10:57;8.68;;;5.38;;
12886;SDS011;6511;49.746;6.094;2023-05-10T01:13:29;8.25;;;5.28;;
12886;SDS011;6511;49.746;6.094;2023-05-10T01:15:58;9.65;;;5.13;;
12886;SDS011;6511;49.746;6.094;2023-05-10T01:18:26;11.07;;;5.00;;
12886;SDS011;6511;49.746;6.094;2023-05-10T01:23:55;8.75;;;5.03;;
12886;SDS011;6511;49.746;6.094;2023-05-10T01:33:10;8.73;;;4.80;;
12886;SDS011;6511;49.746;6.094;2023-05-10T01:35:17;7.63;;;4.40;;
12886;SDS011;6511;49.746;6.094;2023-05-10T01:37:52;9.17;;;4.37;;
12886;SDS011;6511;49.746;6.094;2023-05-10T01:40:39;6.68;;;4.13;;
12886;SDS011;6511;49.746;6.094;2023-05-10T01:43:16;8.18;;;3.95;;
12886;SDS011;6511;49.746;6.094;2023-05-10T01:48:24;7.50;;;4.20;;
12886;SDS011;6511;49.746;6.094;2023-05-10T01:50:52;7.22;;;4.40;;
12886;SDS011;6511;49.746;6.094;2023-05-10T01:53:19;6.63;;;4.13;;
12886;SDS011;6511;49.746;6.094;2023-05-10T01:55:46;6.77;;;4.37;;
12886;SDS011;6511;49.746;6.094;2023-05-10T01:58:27;8.73;;;4.87;;
12886;SDS011;6511;49.746;6.094;2023-05-10T02:00:55;6.45;;;4.78;;
12886;SDS011;6511;49.746;6.094;2023-05-10T02:03:23;6.83;;;4.90;;
12886;SDS011;6511;49.746;6.094;2023-05-10T02:05:51;8.05;;;4.88;;
12886;SDS011;6511;49.746;6.094;2023-05-10T02:08:19;7.15;;;5.40;;
12886;SDS011;6511;49.746;6.094;2023-05-10T02:10:46;8.38;;;5.20;;
12886;SDS011;6511;49.746;6.094;2023-05-10T02:13:14;8.68;;;5.18;;
12886;SDS011;6511;49.746;6.094;2023-05-10T02:15:41;8.87;;;5.40;;
12886;SDS011;6511;49.746;6.094;2023-05-10T02:18:08;7.65;;;4.85;;
12886;SDS011;6511;49.746;6.094;2023-05-10T02:20:35;8.95;;;5.20;;
12886;SDS011;6511;49.746;6.094;2023-05-10T02:23:03;8.07;;;4.60;;
12886;SDS011;6511;49.746;6.094;2023-05-10T02:25:29;6.75;;;4.60;;
12886;SDS011;6511;49.746;6.094;2023-05-10T02:27:57;7.93;;;4.97;;
12886;SDS011;6511;49.746;6.094;2023-05-10T02:30:26;7.63;;;5.05;;
12886;SDS011;6511;49.746;6.094;2023-05-10T02:32:53;9.70;;;5.00;;
12886;SDS011;6511;49.746;6.094;2023-05-10T02:35:20;8.10;;;5.10;;
12886;SDS011;6511;49.746;6.094;2023-05-10T02:37:48;8.77;;;4.90;;
12886;SDS011;6511;49.746;6.094;2023-05-10T02:40:15;7.20;;;4.50;;
12886;SDS011;6511;49.746;6.094;2023-05-10T02:42:42;8.65;;;5.38;;
12886;SDS011;6511;49.746;6.094;2023-05-10T02:45:11;9.40;;;4.85;;
12886;SDS011;6511;49.746;6.094;2023-05-10T02:47:39;7.75;;;4.57;;
12886;SDS011;6511;49.746;6.094;2023-05-10T02:50:05;6.43;;;4.07;;
12886;SDS011;6511;49.746;6.094;2023-05-10T02:52:36;5.25;;;3.75;;
12886;SDS011;6511;49.746;6.094;2023-05-10T02:55:09;5.10;;;3.70;;
12886;SDS011;6511;49.746;6.094;2023-05-10T02:57:39;7.78;;;4.05;;
12886;SDS011;6511;49.746;6.094;2023-05-10T03:00:24;6.13;;;4.10;;
12886;SDS011;6511;49.746;6.094;2023-05-10T03:02:49;8.48;;;4.22;;
12886;SDS011;6511;49.746;6.094;2023-05-10T03:05:15;7.83;;;3.80;;
12886;SDS011;6511;49.746;6.094;2023-05-10T03:07:41;8.60;;;4.10;;
12886;SDS011;6511;49.746;6.094;2023-05-10T03:10:07;5.40;;;3.35;;
12886;SDS011;6511;49.746;6.094;2023-05-10T03:15:37;4.22;;;2.80;;
12886;SDS011;6511;49.746;6.094;2023-05-10T03:18:48;5.95;;;3.10;;
12886;SDS011;6511;49.746;6.094;2023-05-10T03:21:15;4.55;;;2.47;;
12886;SDS011;6511;49.746;6.094;2023-05-10T03:26:23;2.03;;;1.73;;
12886;SDS011;6511;49.746;6.094;2023-05-10T03:28:51;3.53;;;1.50;;
12886;SDS011;6511;49.746;6.094;2023-05-10T03:31:18;1.73;;;1.30;;
12886;SDS011;6511;49.746;6.094;2023-05-10T03:33:47;1.90;;;1.50;;
12886;SDS011;6511;49.746;6.094;2023-05-10T03:36:14;1.20;;;1.00;;
12886;SDS011;6511;49.746;6.094;2023-05-10T03:38:39;2.13;;;1.10;;
12886;SDS011;6511;49.746;6.094;2023-05-10T03:41:05;0.90;;;0.90;;
12886;SDS011;6511;49.746;6.094;2023-05-10T03:43:31;0.63;;;0.63;;
12886;SDS011;6511;49.746;6.094;2023-05-10T03:45:56;0.60;;;0.60;;
12886;SDS011;6511;49.746;6.094;2023-05-10T03:48:22;0.60;;;0.60;;
12886;SDS011;6511;49.746;6.094;2023-05-10T03:50:47;0.70;;;0.70;;
12886;SDS011;6511;49.746;6.094;2023-05-10T03:53:14;0.70;;;0.70;;
12886;SDS011;6511;49.746;6.094;2023-05-10T03:55:40;1.13;;;0.65;;
12886;SDS011;6511;49.746;6.094;2023-05-10T03:58:06;2.20;;;0.70;;
12886;SDS011;6511;49.746;6.094;2023-05-10T04:00:31;0.88;;;0.70;;
12886;SDS011;6511;49.746;6.094;2023-05-10T04:02:57;1.17;;;0.70;;
12886;SDS011;6511;49.746;6.094;2023-05-10T04:05:23;1.60;;;0.70;;
12886;SDS011;6511;49.746;6.094;2023-05-10T04:07:49;1.23;;;0.80;;
12886;SDS011;6511;49.746;6.094;2023-05-10T04:10:15;1.83;;;0.82;;
12886;SDS011;6511;49.746;6.094;2023-05-10T04:12:41;0.90;;;0.67;;
12886;SDS011;6511;49.746;6.094;2023-05-10T04:15:07;1.30;;;0.90;;
12886;SDS011;6511;49.746;6.094;2023-05-10T04:17:33;1.33;;;0.82;;
12886;SDS011;6511;49.746;6.094;2023-05-10T04:19:59;2.13;;;0.90;;
12886;SDS011;6511;49.746;6.094;2023-05-10T04:22:24;2.40;;;0.87;;
12886;SDS011;6511;49.746;6.094;2023-05-10T04:24:50;1.50;;;0.93;;
12886;SDS011;6511;49.746;6.094;2023-05-10T04:27:15;1.42;;;0.80;;
12886;SDS011;6511;49.746;6.094;2023-05-10T04:29:41;1.37;;;0.80;;
12886;SDS011;6511;49.746;6.094;2023-05-10T04:32:07;1.17;;;0.87;;
12886;SDS011;6511;49.746;6.094;2023-05-10T04:34:32;1.05;;;0.80;;
12886;SDS011;6511;49.746;6.094;2023-05-10T04:36:59;0.90;;;0.80;;
12886;SDS011;6511;49.746;6.094;2023-05-10T04:39:24;0.70;;;0.70;;
12886;SDS011;6511;49.746;6.094;2023-05-10T04:41:50;0.80;;;0.70;;
12886;SDS011;6511;49.746;6.094;2023-05-10T04:44:16;1.25;;;0.70;;
12886;SDS011;6511;49.746;6.094;2023-05-10T04:46:41;1.65;;;0.73;;
12886;SDS011;6511;49.746;6.094;2023-05-10T04:49:07;0.93;;;0.80;;
12886;SDS011;6511;49.746;6.094;2023-05-10T04:51:32;1.00;;;0.77;;
12886;SDS011;6511;49.746;6.094;2023-05-10T04:53:58;0.80;;;0.80;;
12886;SDS011;6511;49.746;6.094;2023-05-10T04:56:23;0.90;;;0.90;;
12886;SDS011;6511;49.746;6.094;2023-05-10T04:58:49;0.82;;;0.77;;
12886;SDS011;6511;49.746;6.094;2023-05-10T05:01:15;0.90;;;0.80;;
12886;SDS011;6511;49.746;6.094;2023-05-10T05:03:40;0.80;;;0.80;;
12886;SDS011;6511;49.746;6.094;2023-05-10T05:06:06;1.02;;;0.80;;
12886;SDS011;6511;49.746;6.094;2023-05-10T05:08:32;0.80;;;0.73;;
12886;SDS011;6511;49.746;6.094;2023-05-10T05:10:57;1.30;;;0.70;;
12886;SDS011;6511;49.746;6.094;2023-05-10T05:13:24;1.27;;;1.00;;
12886;SDS011;6511;49.746;6.094;2023-05-10T05:15:49;1.10;;;0.70;;
12886;SDS011;6511;49.746;6.094;2023-05-10T05:18:15;1.13;;;0.70;;
12886;SDS011;6511;49.746;6.094;2023-05-10T05:20:41;0.70;;;0.70;;
12886;SDS011;6511;49.746;6.094;2023-05-10T05:23:06;0.63;;;0.60;;
12886;SDS011;6511;49.746;6.094;2023-05-10T05:25:32;0.70;;;0.60;;
12886;SDS011;6511;49.746;6.094;2023-05-10T05:27:57;0.80;;;0.70;;
12886;SDS011;6511;49.746;6.094;2023-05-10T05:30:23;1.00;;;0.70;;
12886;SDS011;6511;49.746;6.094;2023-05-10T05:32:49;0.60;;;0.60;;
12886;SDS011;6511;49.746;6.094;2023-05-10T05:35:14;0.88;;;0.70;;
12886;SDS011;6511;49.746;6.094;2023-05-10T05:37:40;0.90;;;0.60;;
12886;SDS011;6511;49.746;6.094;2023-05-10T05:40:05;0.90;;;0.60;;
12886;SDS011;6511;49.746;6.094;2023-05-10T05:42:32;0.60;;;0.60;;
12886;SDS011;6511;49.746;6.094;2023-05-10T05:44:57;1.13;;;0.60;;
12886;SDS011;6511;49.746;6.094;2023-05-10T05:47:23;1.00;;;0.60;;
12886;SDS011;6511;49.746;6.094;2023-05-10T05:49:49;1.20;;;0.70;;
12886;SDS011;6511;49.746;6.094;2023-05-10T05:52:14;1.73;;;0.80;;
12886;SDS011;6511;49.746;6.094;2023-05-10T05:54:40;2.20;;;0.70;;
12886;SDS011;6511;49.746;6.094;2023-05-10T05:57:05;0.60;;;0.60;;
12886;SDS011;6511;49.746;6.094;2023-05-10T05:59:31;1.10;;;0.60;;
12886;SDS011;6511;49.746;6.094;2023-05-10T06:01:57;1.10;;;0.70;;
12886;SDS011;6511;49.746;6.094;2023-05-10T06:04:22;1.40;;;0.60;;
12886;SDS011;6511;49.746;6.094;2023-05-10T06:06:48;0.50;;;0.50;;
12886;SDS011;6511;49.746;6.094;2023-05-10T06:09:13;0.60;;;0.60;;
12886;SDS011;6511;49.746;6.094;2023-05-10T06:11:39;1.30;;;0.90;;
12886;SDS011;6511;49.746;6.094;2023-05-10T06:14:04;1.30;;;0.60;;
12886;SDS011;6511;49.746;6.094;2023-05-10T06:16:32;0.60;;;0.60;;
12886;SDS011;6511;49.746;6.094;2023-05-10T06:18:57;1.13;;;0.63;;
12886;SDS011;6511;49.746;6.094;2023-05-10T06:21:23;0.55;;;0.55;;
12886;SDS011;6511;49.746;6.094;2023-05-10T06:23:49;0.60;;;0.60;;
12886;SDS011;6511;49.746;6.094;2023-05-10T06:26:14;0.80;;;0.63;;
12886;SDS011;6511;49.746;6.094;2023-05-10T06:28:40;1.10;;;0.60;;
12886;SDS011;6511;49.746;6.094;2023-05-10T06:31:06;1.10;;;0.60;;
12886;SDS011;6511;49.746;6.094;2023-05-10T06:33:32;0.70;;;0.57;;
12886;SDS011;6511;49.746;6.094;2023-05-10T06:35:58;0.60;;;0.60;;
12886;SDS011;6511;49.746;6.094;2023-05-10T06:38:23;1.10;;;0.70;;
12886;SDS011;6511;49.746;6.094;2023-05-10T06:40:49;1.00;;;0.52;;
12886;SDS011;6511;49.746;6.094;2023-05-10T06:43:15;1.40;;;0.60;;
12886;SDS011;6511;49.746;6.094;2023-05-10T06:45:41;0.70;;;0.70;;
12886;SDS011;6511;49.746;6.094;2023-05-10T06:48:07;0.60;;;0.60;;
12886;SDS011;6511;49.746;6.094;2023-05-10T06:50:33;0.70;;;0.70;;
12886;SDS011;6511;49.746;6.094;2023-05-10T06:52:59;0.60;;;0.60;;
12886;SDS011;6511;49.746;6.094;2023-05-10T06:55:25;1.50;;;0.60;;
12886;SDS011;6511;49.746;6.094;2023-05-10T06:57:51;1.10;;;0.63;;
12886;SDS011;6511;49.746;6.094;2023-05-10T07:00:17;0.55;;;0.55;;
12886;SDS011;6511;49.746;6.094;2023-05-10T07:02:43;0.70;;;0.70;;
12886;SDS011;6511;49.746;6.094;2023-05-10T07:05:09;0.80;;;0.70;;
12886;SDS011;6511;49.746;6.094;2023-05-10T07:07:35;0.70;;;0.68;;
12886;SDS011;6511;49.746;6.094;2023-05-10T07:10:00;0.90;;;0.60;;
12886;SDS011;6511;49.746;6.094;2023-05-10T07:12:26;0.87;;;0.80;;
12886;SDS011;6511;49.746;6.094;2023-05-10T07:14:52;1.20;;;0.75;;
12886;SDS011;6511;49.746;6.094;2023-05-10T07:17:18;1.17;;;0.70;;
12886;SDS011;6511;49.746;6.094;2023-05-10T07:19:43;0.90;;;0.80;;
12886;SDS011;6511;49.746;6.094;2023-05-10T07:22:09;1.25;;;0.85;;
12886;SDS011;6511;49.746;6.094;2023-05-10T07:24:44;0.82;;;0.82;;
12886;SDS011;6511;49.746;6.094;2023-05-10T07:27:11;2.00;;;0.90;;
12886;SDS011;6511;49.746;6.094;2023-05-10T07:29:40;1.10;;;0.90;;
12886;SDS011;6511;49.746;6.094;2023-05-10T07:32:07;2.23;;;0.80;;
12886;SDS011;6511;49.746;6.094;2023-05-10T07:34:33;1.08;;;0.82;;
12886;SDS011;6511;49.746;6.094;2023-05-10T07:37:00;1.03;;;0.90;;
12886;SDS011;6511;49.746;6.094;2023-05-10T07:39:26;1.65;;;0.80;;
12886;SDS011;6511;49.746;6.094;2023-05-10T07:41:52;1.17;;;0.90;;
12886;SDS011;6511;49.746;6.094;2023-05-10T07:44:18;1.13;;;0.97;;
12886;SDS011;6511;49.746;6.094;2023-05-10T07:46:45;1.02;;;0.80;;
12886;SDS011;6511;49.746;6.094;2023-05-10T07:49:11;1.58;;;1.02;;
12886;SDS011;6511;49.746;6.094;2023-05-10T07:51:37;1.70;;;1.00;;
12886;SDS011;6511;49.746;6.094;2023-05-10T07:54:02;0.93;;;0.93;;
12886;SDS011;6511;49.746;6.094;2023-05-10T07:56:31;1.23;;;0.80;;
12886;SDS011;6511;49.746;6.094;2023-05-10T07:58:57;1.00;;;0.80;;
12886;SDS011;6511;49.746;6.094;2023-05-10T08:01:24;0.80;;;0.80;;
12886;SDS011;6511;49.746;6.094;2023-05-10T08:03:50;0.80;;;0.80;;
12886;SDS011;6511;49.746;6.094;2023-05-10T08:06:16;0.80;;;0.80;;
12886;SDS011;6511;49.746;6.094;2023-05-10T08:08:43;0.70;;;0.70;;
12886;SDS011;6511;49.746;6.094;2023-05-10T08:11:14;1.50;;;0.90;;
12886;SDS011;6511;49.746;6.094;2023-05-10T08:13:43;0.70;;;0.70;;
12886;SDS011;6511;49.746;6.094;2023-05-10T08:16:09;0.75;;;0.70;;
12886;SDS011;6511;49.746;6.094;2023-05-10T08:18:35;0.70;;;0.70;;
12886;SDS011;6511;49.746;6.094;2023-05-10T08:21:01;2.13;;;0.63;;
12886;SDS011;6511;49.746;6.094;2023-05-10T08:23:27;0.60;;;0.60;;
12886;SDS011;6511;49.746;6.094;2023-05-10T08:25:52;0.90;;;0.70;;
12886;SDS011;6511;49.746;6.094;2023-05-10T08:28:18;0.63;;;0.63;;
12886;SDS011;6511;49.746;6.094;2023-05-10T08:30:43;1.10;;;0.60;;
12886;SDS011;6511;49.746;6.094;2023-05-10T08:33:09;0.60;;;0.60;;
12886;SDS011;6511;49.746;6.094;2023-05-10T08:35:35;0.80;;;0.80;;
12886;SDS011;6511;49.746;6.094;2023-05-10T08:38:00;0.73;;;0.70;;
12886;SDS011;6511;49.746;6.094;2023-05-10T08:40:26;0.60;;;0.60;;
12886;SDS011;6511;49.746;6.094;2023-05-10T08:43:05;1.00;;;0.70;;
12886;SDS011;6511;49.746;6.094;2023-05-10T08:45:35;1.10;;;0.60;;
12886;SDS011;6511;49.746;6.094;2023-05-10T08:48:03;1.00;;;0.80;;
12886;SDS011;6511;49.746;6.094;2023-05-10T08:50:31;1.42;;;0.90;;
12886;SDS011;6511;49.746;6.094;2023-05-10T08:52:57;0.70;;;0.70;;
12886;SDS011;6511;49.746;6.094;2023-05-10T08:55:26;2.72;;;0.80;;
12886;SDS011;6511;49.746;6.094;2023-05-10T08:57:53;1.00;;;0.90;;
12886;SDS011;6511;49.746;6.094;2023-05-10T09:00:18;1.30;;;0.90;;
12886;SDS011;6511;49.746;6.094;2023-05-10T09:02:45;1.60;;;0.70;;
12886;SDS011;6511;49.746;6.094;2023-05-10T09:05:13;0.80;;;0.80;;
12886;SDS011;6511;49.746;6.094;2023-05-10T09:07:40;1.08;;;0.93;;
12886;SDS011;6511;49.746;6.094;2023-05-10T09:10:06;0.75;;;0.75;;
12886;SDS011;6511;49.746;6.094;2023-05-10T09:12:33;1.70;;;1.00;;
12886;SDS011;6511;49.746;6.094;2023-05-10T09:14:59;1.38;;;0.90;;
12886;SDS011;6511;49.746;6.094;2023-05-10T09:17:26;0.90;;;0.77;;
12886;SDS011;6511;49.746;6.094;2023-05-10T09:19:58;1.40;;;0.90;;
12886;SDS011;6511;49.746;6.094;2023-05-10T09:22:29;1.23;;;0.95;;
12886;SDS011;6511;49.746;6.094;2023-05-10T09:25:11;1.13;;;0.90;;
12886;SDS011;6511;49.746;6.094;2023-05-10T09:27:39;1.08;;;1.00;;
12886;SDS011;6511;49.746;6.094;2023-05-10T09:30:06;1.33;;;1.13;;
12886;SDS011;6511;49.746;6.094;2023-05-10T09:35:14;2.17;;;1.30;;
12886;SDS011;6511;49.746;6.094;2023-05-10T09:37:45;2.10;;;1.10;;
12886;SDS011;6511;49.746;6.094;2023-05-10T09:40:16;1.57;;;1.10;;
12886;SDS011;6511;49.746;6.094;2023-05-10T09:45:31;2.22;;;1.48;;
12886;SDS011;6511;49.746;6.094;2023-05-10T09:47:58;3.92;;;1.50;;
12886;SDS011;6511;49.746;6.094;2023-05-10T09:50:24;1.67;;;1.35;;
12886;SDS011;6511;49.746;6.094;2023-05-10T09:52:54;1.67;;;1.20;;
12886;SDS011;6511;49.746;6.094;2023-05-10T09:55:26;1.35;;;1.20;;
12886;SDS011;6511;49.746;6.094;2023-05-10T09:58:02;1.80;;;1.30;;
12886;SDS011;6511;49.746;6.094;2023-05-10T10:00:34;2.22;;;1.30;;
12886;SDS011;6511;49.746;6.094;2023-05-10T10:03:03;2.70;;;1.30;;
12886;SDS011;6511;49.746;6.094;2023-05-10T10:07:59;3.63;;;1.40;;
12886;SDS011;6511;49.746;6.094;2023-05-10T10:10:27;2.17;;;1.40;;
12886;SDS011;6511;49.746;6.094;2023-05-10T10:12:54;2.28;;;1.40;;
12886;SDS011;6511;49.746;6.094;2023-05-10T10:15:20;2.70;;;1.40;;
12886;SDS011;6511;49.746;6.094;2023-05-10T10:17:47;2.83;;;1.40;;
12886;SDS011;6511;49.746;6.094;2023-05-10T10:20:14;3.55;;;1.50;;
12886;SDS011;6511;49.746;6.094;2023-05-10T10:22:40;3.20;;;1.70;;
12886;SDS011;6511;49.746;6.094;2023-05-10T10:25:08;2.85;;;1.50;;
12886;SDS011;6511;49.746;6.094;2023-05-10T10:28:09;3.33;;;1.40;;
12886;SDS011;6511;49.746;6.094;2023-05-10T10:30:47;2.47;;;1.48;;
12886;SDS011;6511;49.746;6.094;2023-05-10T10:36:02;3.10;;;1.50;;
12886;SDS011;6511;49.746;6.094;2023-05-10T10:52:27;3.85;;;1.30;;
12886;SDS011;6511;49.746;6.094;2023-05-10T11:00:32;3.30;;;1.35;;
12886;SDS011;6511;49.746;6.094;2023-05-10T11:03:09;3.15;;;1.40;;
12886;SDS011;6511;49.746;6.094;2023-05-10T11:05:42;3.65;;;1.60;;
12886;SDS011;6511;49.746;6.094;2023-05-10T11:15:56;2.72;;;1.70;;
12886;SDS011;6511;49.746;6.094;2023-05-10T11:18:24;3.17;;;1.25;;
12886;SDS011;6511;49.746;6.094;2023-05-10T11:20:51;2.65;;;1.40;;
12886;SDS011;6511;49.746;6.094;2023-05-10T11:23:17;2.03;;;1.30;;
12886;SDS011;6511;49.746;6.094;2023-05-10T11:25:45;4.80;;;1.40;;
12886;SDS011;6511;49.746;6.094;2023-05-10T11:28:11;3.10;;;1.35;;
12886;SDS011;6511;49.746;6.094;2023-05-10T11:30:38;2.47;;;1.20;;
12886;SDS011;6511;49.746;6.094;2023-05-10T11:33:05;4.15;;;1.23;;
12886;SDS011;6511;49.746;6.094;2023-05-10T11:35:36;1.47;;;1.10;;
12886;SDS011;6511;49.746;6.094;2023-05-10T11:38:05;2.87;;;1.20;;
12886;SDS011;6511;49.746;6.094;2023-05-10T11:40:31;1.70;;;1.20;;
12886;SDS011;6511;49.746;6.094;2023-05-10T11:42:56;1.77;;;1.10;;
12886;SDS011;6511;49.746;6.094;2023-05-10T11:45:23;2.38;;;1.13;;
12886;SDS011;6511;49.746;6.094;2023-05-10T11:47:49;1.97;;;1.10;;
12886;SDS011;6511;49.746;6.094;2023-05-10T11:50:16;2.50;;;1.10;;
12886;SDS011;6511;49.746;6.094;2023-05-10T11:52:42;2.40;;;1.20;;
12886;SDS011;6511;49.746;6.094;2023-05-10T11:55:08;2.67;;;1.00;;
12886;SDS011;6511;49.746;6.094;2023-05-10T11:57:35;2.87;;;1.23;;
12886;SDS011;6511;49.746;6.094;2023-05-10T12:00:03;3.53;;;1.30;;
12886;SDS011;6511;49.746;6.094;2023-05-10T12:02:29;2.33;;;1.02;;
12886;SDS011;6511;49.746;6.094;2023-05-10T12:04:58;1.95;;;1.10;;
12886;SDS011;6511;49.746;6.094;2023-05-10T12:07:25;3.90;;;1.27;;
12886;SDS011;6511;49.746;6.094;2023-05-10T12:10:07;1.63;;;1.00;;
12886;SDS011;6511;49.746;6.094;2023-05-10T12:12:42;2.25;;;0.85;;
12886;SDS011;6511;49.746;6.094;2023-05-10T12:15:27;2.22;;;0.98;;
12886;SDS011;6511;49.746;6.094;2023-05-10T12:17:53;2.05;;;1.20;;
12886;SDS011;6511;49.746;6.094;2023-05-10T12:20:19;1.40;;;1.00;;
12886;SDS011;6511;49.746;6.094;2023-05-10T12:22:53;1.43;;;0.90;;
12886;SDS011;6511;49.746;6.094;2023-05-10T12:25:21;2.10;;;1.33;;
12886;SDS011;6511;49.746;6.094;2023-05-10T12:27:51;2.65;;;1.13;;
12886;SDS011;6511;49.746;6.094;2023-05-10T12:30:19;2.35;;;1.00;;
12886;SDS011;6511;49.746;6.094;2023-05-10T12:32:48;2.83;;;0.98;;
12886;SDS011;6511;49.746;6.094;2023-05-10T12:35:18;2.43;;;0.90;;
12886;SDS011;6511;49.746;6.094;2023-05-10T12:37:49;1.42;;;0.93;;
12886;SDS011;6511;49.746;6.094;2023-05-10T12:40:15;2.30;;;1.00;;
12886;SDS011;6511;49.746;6.094;2023-05-10T12:42:41;1.67;;;1.00;;
12886;SDS011;6511;49.746;6.094;2023-05-10T12:45:08;1.98;;;0.90;;
12886;SDS011;6511;49.746;6.094;2023-05-10T12:47:34;2.88;;;1.20;;
12886;SDS011;6511;49.746;6.094;2023-05-10T12:50:00;1.90;;;0.90;;
12886;SDS011;6511;49.746;6.094;2023-05-10T12:52:27;1.50;;;0.85;;
12886;SDS011;6511;49.746;6.094;2023-05-10T12:54:53;1.75;;;1.05;;
12886;SDS011;6511;49.746;6.094;2023-05-10T12:57:22;1.70;;;1.00;;
12886;SDS011;6511;49.746;6.094;2023-05-10T12:59:48;2.28;;;0.90;;
12886;SDS011;6511;49.746;6.094;2023-05-10T13:02:14;1.55;;;0.90;;
12886;SDS011;6511;49.746;6.094;2023-05-10T13:04:40;1.40;;;0.80;;
12886;SDS011;6511;49.746;6.094;2023-05-10T13:07:07;1.77;;;1.00;;
12886;SDS011;6511;49.746;6.094;2023-05-10T13:09:32;2.05;;;0.90;;
12886;SDS011;6511;49.746;6.094;2023-05-10T13:11:58;1.30;;;0.93;;
12886;SDS011;6511;49.746;6.094;2023-05-10T13:14:24;2.10;;;0.90;;
12886;SDS011;6511;49.746;6.094;2023-05-10T13:16:50;1.13;;;0.85;;
12886;SDS011;6511;49.746;6.094;2023-05-10T13:19:16;2.57;;;1.00;;
12886;SDS011;6511;49.746;6.094;2023-05-10T13:21:42;1.35;;;0.90;;
12886;SDS011;6511;49.746;6.094;2023-05-10T13:24:09;1.65;;;0.90;;
12886;SDS011;6511;49.746;6.094;2023-05-10T13:26:35;1.08;;;0.77;;
12886;SDS011;6511;49.746;6.094;2023-05-10T13:29:01;3.20;;;0.98;;
12886;SDS011;6511;49.746;6.094;2023-05-10T13:31:28;1.35;;;0.93;;
12886;SDS011;6511;49.746;6.094;2023-05-10T13:33:53;2.80;;;1.00;;
12886;SDS011;6511;49.746;6.094;2023-05-10T13:36:19;1.35;;;0.82;;
12886;SDS011;6511;49.746;6.094;2023-05-10T13:38:45;1.02;;;0.82;;
12886;SDS011;6511;49.746;6.094;2023-05-10T13:41:10;1.93;;;0.83;;
12886;SDS011;6511;49.746;6.094;2023-05-10T13:43:36;2.40;;;0.90;;
12886;SDS011;6511;49.746;6.094;2023-05-10T13:46:01;1.17;;;0.90;;
12886;SDS011;6511;49.746;6.094;2023-05-10T13:48:27;1.67;;;0.82;;
12886;SDS011;6511;49.746;6.094;2023-05-10T13:50:53;3.35;;;0.85;;
12886;SDS011;6511;49.746;6.094;2023-05-10T13:53:19;1.67;;;0.93;;
12886;SDS011;6511;49.746;6.094;2023-05-10T13:55:44;2.90;;;1.17;;
12886;SDS011;6511;49.746;6.094;2023-05-10T13:58:10;1.63;;;0.83;;
12886;SDS011;6511;49.746;6.094;2023-05-10T14:00:35;1.40;;;0.80;;
12886;SDS011;6511;49.746;6.094;2023-05-10T14:03:01;1.00;;;0.77;;
12886;SDS011;6511;49.746;6.094;2023-05-10T14:05:27;1.73;;;0.80;;
12886;SDS011;6511;49.746;6.094;2023-05-10T14:07:52;1.80;;;0.70;;
12886;SDS011;6511;49.746;6.094;2023-05-10T14:10:18;1.60;;;0.70;;
12886;SDS011;6511;49.746;6.094;2023-05-10T14:12:44;1.90;;;0.73;;
12886;SDS011;6511;49.746;6.094;2023-05-10T14:15:10;1.63;;;0.90;;
12886;SDS011;6511;49.746;6.094;2023-05-10T14:17:36;1.10;;;0.70;;
12886;SDS011;6511;49.746;6.094;2023-05-10T14:20:02;1.67;;;0.80;;
12886;SDS011;6511;49.746;6.094;2023-05-10T14:22:28;1.50;;;0.80;;
12886;SDS011;6511;49.746;6.094;2023-05-10T14:24:54;0.90;;;0.70;;
12886;SDS011;6511;49.746;6.094;2023-05-10T14:27:20;1.27;;;0.70;;
12886;SDS011;6511;49.746;6.094;2023-05-10T14:29:46;0.85;;;0.70;;
12886;SDS011;6511;49.746;6.094;2023-05-10T14:32:12;1.40;;;0.70;;
12886;SDS011;6511;49.746;6.094;2023-05-10T14:34:38;2.30;;;0.80;;
12886;SDS011;6511;49.746;6.094;2023-05-10T14:37:03;1.00;;;0.80;;
12886;SDS011;6511;49.746;6.094;2023-05-10T14:39:29;0.80;;;0.80;;
12886;SDS011;6511;49.746;6.094;2023-05-10T14:41:55;2.25;;;0.80;;
12886;SDS011;6511;49.746;6.094;2023-05-10T14:44:21;2.10;;;0.90;;
12886;SDS011;6511;49.746;6.094;2023-05-10T14:46:47;0.80;;;0.70;;
12886;SDS011;6511;49.746;6.094;2023-05-10T14:49:13;2.60;;;0.73;;
12886;SDS011;6511;49.746;6.094;2023-05-10T14:51:39;1.67;;;0.80;;
12886;SDS011;6511;49.746;6.094;2023-05-10T14:54:04;1.10;;;0.70;;
12886;SDS011;6511;49.746;6.094;2023-05-10T14:56:31;1.90;;;0.80;;
12886;SDS011;6511;49.746;6.094;2023-05-10T14:58:56;2.22;;;0.80;;
12886;SDS011;6511;49.746;6.094;2023-05-10T15:01:22;0.90;;;0.80;;
12886;SDS011;6511;49.746;6.094;2023-05-10T15:03:48;2.77;;;0.80;;
12886;SDS011;6511;49.746;6.094;2023-05-10T15:06:14;1.00;;;0.80;;
12886;SDS011;6511;49.746;6.094;2023-05-10T15:08:40;1.40;;;0.85;;
12886;SDS011;6511;49.746;6.094;2023-05-10T15:11:06;1.20;;;0.90;;
12886;SDS011;6511;49.746;6.094;2023-05-10T15:13:32;1.92;;;0.68;;
12886;SDS011;6511;49.746;6.094;2023-05-10T15:15:58;1.27;;;0.65;;
12886;SDS011;6511;49.746;6.094;2023-05-10T15:18:23;1.20;;;0.68;;
12886;SDS011;6511;49.746;6.094;2023-05-10T15:20:49;2.37;;;1.00;;
12886;SDS011;6511;49.746;6.094;2023-05-10T15:23:15;0.80;;;0.80;;
12886;SDS011;6511;49.746;6.094;2023-05-10T15:25:40;2.90;;;0.83;;
12886;SDS011;6511;49.746;6.094;2023-05-10T15:28:06;0.90;;;0.80;;
12886;SDS011;6511;49.746;6.094;2023-05-10T15:30:31;1.05;;;0.70;;
12886;SDS011;6511;49.746;6.094;2023-05-10T15:32:57;2.20;;;0.80;;
12886;SDS011;6511;49.746;6.094;2023-05-10T15:35:23;1.10;;;1.00;;
12886;SDS011;6511;49.746;6.094;2023-05-10T15:37:48;0.80;;;0.73;;
12886;SDS011;6511;49.746;6.094;2023-05-10T15:40:14;1.33;;;0.73;;
12886;SDS011;6511;49.746;6.094;2023-05-10T15:42:40;1.85;;;0.70;;
12886;SDS011;6511;49.746;6.094;2023-05-10T15:45:06;1.83;;;0.70;;
12886;SDS011;6511;49.746;6.094;2023-05-10T15:47:32;1.38;;;0.82;;
12886;SDS011;6511;49.746;6.094;2023-05-10T15:49:58;0.80;;;0.63;;
12886;SDS011;6511;49.746;6.094;2023-05-10T15:52:23;1.27;;;0.63;;
12886;SDS011;6511;49.746;6.094;2023-05-10T15:54:49;1.83;;;0.80;;